Terminal Aerodrome Forecast
Issued by NWS Topeka, KS

Home | Current Version | Previous Version | Graphics & Text | Print | Product List | Glossary On
Versions: 1 2 3 4 5 6 7 8 9 10 11 12 13 14 15 16 17 18 19 20 21
054
FTUS43 KTOP 101723
TAFTOP
TAF
KTOP 101723Z 1018/1118 22013G20KT P6SM SKC
     FM102000 24011G20KT P6SM SKC
     FM102300 32010KT P6SM SKC
     FM110400 01006KT P6SM SCT030 SCT130=

USA.gov is the U.S. government's official web portal to all federal, state and local government web resources and services.